sensor_id;sensor_type;location;lat;lon;timestamp;P1;durP1;ratioP1;P2;durP2;ratioP2
3985;SDS011;2007;48.750;9.278;2023-04-12T00:01:37;2.77;;;1.43;;
3985;SDS011;2007;48.750;9.278;2023-04-12T00:04:06;2.00;;;1.20;;
3985;SDS011;2007;48.750;9.278;2023-04-12T00:06:35;1.90;;;1.20;;
3985;SDS011;2007;48.750;9.278;2023-04-12T00:09:06;2.10;;;1.10;;
3985;SDS011;2007;48.750;9.278;2023-04-12T00:11:34;2.33;;;1.23;;
3985;SDS011;2007;48.750;9.278;2023-04-12T00:14:02;2.37;;;1.30;;
3985;SDS011;2007;48.750;9.278;2023-04-12T00:16:30;2.07;;;1.33;;
3985;SDS011;2007;48.750;9.278;2023-04-12T00:18:58;1.70;;;1.10;;
3985;SDS011;2007;48.750;9.278;2023-04-12T00:21:26;2.10;;;1.30;;
3985;SDS011;2007;48.750;9.278;2023-04-12T00:23:55;1.67;;;1.10;;
3985;SDS011;2007;48.750;9.278;2023-04-12T00:26:25;1.80;;;1.00;;
3985;SDS011;2007;48.750;9.278;2023-04-12T00:28:52;1.90;;;1.20;;
3985;SDS011;2007;48.750;9.278;2023-04-12T00:31:21;8.03;;;1.60;;
3985;SDS011;2007;48.750;9.278;2023-04-12T00:33:49;2.03;;;1.53;;
3985;SDS011;2007;48.750;9.278;2023-04-12T00:36:17;2.73;;;1.50;;
3985;SDS011;2007;48.750;9.278;2023-04-12T00:38:45;2.63;;;1.10;;
3985;SDS011;2007;48.750;9.278;2023-04-12T00:41:13;1.93;;;1.23;;
3985;SDS011;2007;48.750;9.278;2023-04-12T00:43:42;2.10;;;1.20;;
3985;SDS011;2007;48.750;9.278;2023-04-12T00:46:10;2.53;;;1.23;;
3985;SDS011;2007;48.750;9.278;2023-04-12T00:48:38;1.90;;;1.20;;
3985;SDS011;2007;48.750;9.278;2023-04-12T00:51:06;2.20;;;1.63;;
3985;SDS011;2007;48.750;9.278;2023-04-12T00:53:35;2.30;;;1.47;;
3985;SDS011;2007;48.750;9.278;2023-04-12T00:56:05;2.33;;;1.50;;
3985;SDS011;2007;48.750;9.278;2023-04-12T00:58:37;2.30;;;1.20;;
3985;SDS011;2007;48.750;9.278;2023-04-12T01:01:06;2.47;;;1.43;;
3985;SDS011;2007;48.750;9.278;2023-04-12T01:03:35;2.57;;;1.47;;
3985;SDS011;2007;48.750;9.278;2023-04-12T01:06:10;1.73;;;1.30;;
3985;SDS011;2007;48.750;9.278;2023-04-12T01:08:46;1.93;;;1.30;;
3985;SDS011;2007;48.750;9.278;2023-04-12T01:11:25;1.93;;;1.17;;
3985;SDS011;2007;48.750;9.278;2023-04-12T01:13:58;2.10;;;1.40;;
3985;SDS011;2007;48.750;9.278;2023-04-12T01:16:37;1.80;;;1.20;;
3985;SDS011;2007;48.750;9.278;2023-04-12T01:19:12;1.90;;;1.40;;
3985;SDS011;2007;48.750;9.278;2023-04-12T01:21:58;2.03;;;1.27;;
3985;SDS011;2007;48.750;9.278;2023-04-12T01:24:36;2.30;;;1.40;;
3985;SDS011;2007;48.750;9.278;2023-04-12T01:27:25;2.00;;;1.10;;
3985;SDS011;2007;48.750;9.278;2023-04-12T01:30:00;2.97;;;1.40;;
3985;SDS011;2007;48.750;9.278;2023-04-12T01:32:32;2.30;;;1.40;;
3985;SDS011;2007;48.750;9.278;2023-04-12T01:35:03;2.30;;;1.33;;
3985;SDS011;2007;48.750;9.278;2023-04-12T01:37:33;2.40;;;1.40;;
3985;SDS011;2007;48.750;9.278;2023-04-12T01:40:02;2.20;;;1.37;;
3985;SDS011;2007;48.750;9.278;2023-04-12T01:42:33;1.60;;;1.07;;
3985;SDS011;2007;48.750;9.278;2023-04-12T01:45:01;2.37;;;1.10;;
3985;SDS011;2007;48.750;9.278;2023-04-12T01:47:30;2.87;;;1.20;;
3985;SDS011;2007;48.750;9.278;2023-04-12T01:50:02;2.40;;;1.40;;
3985;SDS011;2007;48.750;9.278;2023-04-12T01:52:40;2.30;;;1.30;;
3985;SDS011;2007;48.750;9.278;2023-04-12T01:55:12;1.77;;;1.10;;
3985;SDS011;2007;48.750;9.278;2023-04-12T01:57:44;2.17;;;1.30;;
3985;SDS011;2007;48.750;9.278;2023-04-12T02:00:14;2.07;;;1.10;;
3985;SDS011;2007;48.750;9.278;2023-04-12T02:02:44;1.77;;;1.07;;
3985;SDS011;2007;48.750;9.278;2023-04-12T02:05:12;1.60;;;1.00;;
3985;SDS011;2007;48.750;9.278;2023-04-12T02:07:41;2.27;;;1.40;;
3985;SDS011;2007;48.750;9.278;2023-04-12T02:10:12;1.70;;;0.97;;
3985;SDS011;2007;48.750;9.278;2023-04-12T02:12:40;2.10;;;1.27;;
3985;SDS011;2007;48.750;9.278;2023-04-12T02:15:10;2.23;;;1.23;;
3985;SDS011;2007;48.750;9.278;2023-04-12T02:17:38;2.10;;;1.20;;
3985;SDS011;2007;48.750;9.278;2023-04-12T02:20:06;1.90;;;1.30;;
3985;SDS011;2007;48.750;9.278;2023-04-12T02:22:35;1.90;;;1.23;;
3985;SDS011;2007;48.750;9.278;2023-04-12T02:25:04;3.10;;;1.50;;
3985;SDS011;2007;48.750;9.278;2023-04-12T02:27:32;2.00;;;1.20;;
3985;SDS011;2007;48.750;9.278;2023-04-12T02:30:00;1.73;;;1.10;;
3985;SDS011;2007;48.750;9.278;2023-04-12T02:32:31;2.10;;;1.30;;
3985;SDS011;2007;48.750;9.278;2023-04-12T02:35:09;1.83;;;1.23;;
3985;SDS011;2007;48.750;9.278;2023-04-12T02:37:37;2.40;;;1.30;;
3985;SDS011;2007;48.750;9.278;2023-04-12T02:40:06;1.70;;;1.20;;
3985;SDS011;2007;48.750;9.278;2023-04-12T02:42:36;2.73;;;1.63;;
3985;SDS011;2007;48.750;9.278;2023-04-12T02:45:06;1.60;;;1.30;;
3985;SDS011;2007;48.750;9.278;2023-04-12T02:47:35;2.67;;;1.67;;
3985;SDS011;2007;48.750;9.278;2023-04-12T02:50:04;2.83;;;1.20;;
3985;SDS011;2007;48.750;9.278;2023-04-12T02:52:33;1.67;;;1.10;;
3985;SDS011;2007;48.750;9.278;2023-04-12T02:55:01;2.47;;;1.30;;
3985;SDS011;2007;48.750;9.278;2023-04-12T02:57:29;2.40;;;1.03;;
3985;SDS011;2007;48.750;9.278;2023-04-12T02:59:57;1.90;;;1.50;;
3985;SDS011;2007;48.750;9.278;2023-04-12T03:02:25;2.63;;;1.67;;
3985;SDS011;2007;48.750;9.278;2023-04-12T03:04:54;1.90;;;1.40;;
3985;SDS011;2007;48.750;9.278;2023-04-12T03:07:22;2.20;;;1.40;;
3985;SDS011;2007;48.750;9.278;2023-04-12T03:09:50;2.37;;;1.23;;
3985;SDS011;2007;48.750;9.278;2023-04-12T03:12:18;2.40;;;1.47;;
3985;SDS011;2007;48.750;9.278;2023-04-12T03:14:46;2.60;;;1.47;;
3985;SDS011;2007;48.750;9.278;2023-04-12T03:17:14;2.67;;;1.50;;
3985;SDS011;2007;48.750;9.278;2023-04-12T03:19:42;1.93;;;1.10;;
3985;SDS011;2007;48.750;9.278;2023-04-12T03:22:12;2.00;;;1.20;;
3985;SDS011;2007;48.750;9.278;2023-04-12T03:24:40;2.00;;;1.30;;
3985;SDS011;2007;48.750;9.278;2023-04-12T03:27:11;1.87;;;1.30;;
3985;SDS011;2007;48.750;9.278;2023-04-12T03:29:39;1.80;;;1.10;;
3985;SDS011;2007;48.750;9.278;2023-04-12T03:32:07;2.33;;;1.37;;
3985;SDS011;2007;48.750;9.278;2023-04-12T03:34:36;1.90;;;1.20;;
3985;SDS011;2007;48.750;9.278;2023-04-12T03:37:03;1.90;;;1.37;;
3985;SDS011;2007;48.750;9.278;2023-04-12T03:39:33;1.60;;;0.90;;
3985;SDS011;2007;48.750;9.278;2023-04-12T03:42:01;1.80;;;1.20;;
3985;SDS011;2007;48.750;9.278;2023-04-12T03:44:29;1.63;;;0.90;;
3985;SDS011;2007;48.750;9.278;2023-04-12T03:46:57;1.90;;;1.50;;
3985;SDS011;2007;48.750;9.278;2023-04-12T03:49:26;1.73;;;1.20;;
3985;SDS011;2007;48.750;9.278;2023-04-12T03:51:53;1.83;;;1.17;;
3985;SDS011;2007;48.750;9.278;2023-04-12T03:54:22;2.03;;;1.20;;
3985;SDS011;2007;48.750;9.278;2023-04-12T03:56:51;2.00;;;1.30;;
3985;SDS011;2007;48.750;9.278;2023-04-12T03:59:19;2.13;;;1.17;;
3985;SDS011;2007;48.750;9.278;2023-04-12T04:01:47;2.10;;;1.50;;
3985;SDS011;2007;48.750;9.278;2023-04-12T04:04:15;2.33;;;1.23;;
3985;SDS011;2007;48.750;9.278;2023-04-12T04:06:43;1.80;;;0.90;;
3985;SDS011;2007;48.750;9.278;2023-04-12T04:09:12;2.00;;;1.27;;
3985;SDS011;2007;48.750;9.278;2023-04-12T04:11:40;1.80;;;1.00;;
3985;SDS011;2007;48.750;9.278;2023-04-12T04:14:09;2.13;;;1.93;;
3985;SDS011;2007;48.750;9.278;2023-04-12T04:16:37;2.40;;;1.40;;
3985;SDS011;2007;48.750;9.278;2023-04-12T04:19:05;1.73;;;1.13;;
3985;SDS011;2007;48.750;9.278;2023-04-12T04:21:33;2.00;;;1.33;;
3985;SDS011;2007;48.750;9.278;2023-04-12T04:24:01;1.90;;;1.40;;
3985;SDS011;2007;48.750;9.278;2023-04-12T04:26:29;1.70;;;1.17;;
3985;SDS011;2007;48.750;9.278;2023-04-12T04:29:00;1.90;;;1.27;;
3985;SDS011;2007;48.750;9.278;2023-04-12T04:31:29;3.03;;;1.70;;
3985;SDS011;2007;48.750;9.278;2023-04-12T04:33:59;1.90;;;1.10;;
3985;SDS011;2007;48.750;9.278;2023-04-12T04:36:28;2.03;;;1.23;;
3985;SDS011;2007;48.750;9.278;2023-04-12T04:38:57;2.40;;;1.23;;
3985;SDS011;2007;48.750;9.278;2023-04-12T04:41:25;2.00;;;1.10;;
3985;SDS011;2007;48.750;9.278;2023-04-12T04:43:53;1.60;;;0.90;;
3985;SDS011;2007;48.750;9.278;2023-04-12T04:46:21;1.80;;;1.07;;
3985;SDS011;2007;48.750;9.278;2023-04-12T04:48:50;3.03;;;1.10;;
3985;SDS011;2007;48.750;9.278;2023-04-12T04:51:20;1.50;;;0.97;;
3985;SDS011;2007;48.750;9.278;2023-04-12T04:53:48;1.70;;;1.10;;
3985;SDS011;2007;48.750;9.278;2023-04-12T04:56:16;2.10;;;1.20;;
3985;SDS011;2007;48.750;9.278;2023-04-12T04:58:44;1.70;;;1.10;;
3985;SDS011;2007;48.750;9.278;2023-04-12T05:01:11;1.60;;;0.80;;
3985;SDS011;2007;48.750;9.278;2023-04-12T05:03:42;2.10;;;1.10;;
3985;SDS011;2007;48.750;9.278;2023-04-12T05:06:12;2.03;;;1.83;;
3985;SDS011;2007;48.750;9.278;2023-04-12T05:08:40;1.90;;;1.17;;
3985;SDS011;2007;48.750;9.278;2023-04-12T05:11:08;2.00;;;1.10;;
3985;SDS011;2007;48.750;9.278;2023-04-12T05:13:36;1.80;;;1.00;;
3985;SDS011;2007;48.750;9.278;2023-04-12T05:16:04;1.67;;;1.10;;
3985;SDS011;2007;48.750;9.278;2023-04-12T05:18:34;1.53;;;0.97;;
3985;SDS011;2007;48.750;9.278;2023-04-12T05:21:02;2.10;;;1.23;;
3985;SDS011;2007;48.750;9.278;2023-04-12T05:23:33;1.80;;;1.20;;
3985;SDS011;2007;48.750;9.278;2023-04-12T05:26:02;2.10;;;1.10;;
3985;SDS011;2007;48.750;9.278;2023-04-12T05:28:31;1.90;;;1.07;;
3985;SDS011;2007;48.750;9.278;2023-04-12T05:30:59;2.30;;;1.23;;
3985;SDS011;2007;48.750;9.278;2023-04-12T05:33:27;1.60;;;0.93;;
3985;SDS011;2007;48.750;9.278;2023-04-12T05:35:58;3.00;;;1.50;;
3985;SDS011;2007;48.750;9.278;2023-04-12T05:38:26;1.70;;;1.00;;
3985;SDS011;2007;48.750;9.278;2023-04-12T05:40:56;1.70;;;1.30;;
3985;SDS011;2007;48.750;9.278;2023-04-12T05:43:24;1.80;;;1.03;;
3985;SDS011;2007;48.750;9.278;2023-04-12T05:45:51;3.60;;;1.30;;
3985;SDS011;2007;48.750;9.278;2023-04-12T05:48:19;3.17;;;1.20;;
3985;SDS011;2007;48.750;9.278;2023-04-12T05:50:50;1.80;;;1.10;;
3985;SDS011;2007;48.750;9.278;2023-04-12T05:53:19;1.60;;;1.00;;
3985;SDS011;2007;48.750;9.278;2023-04-12T05:55:47;1.70;;;1.00;;
3985;SDS011;2007;48.750;9.278;2023-04-12T05:58:18;2.10;;;1.27;;
3985;SDS011;2007;48.750;9.278;2023-04-12T06:00:46;1.93;;;1.23;;
3985;SDS011;2007;48.750;9.278;2023-04-12T06:03:14;3.30;;;1.07;;
3985;SDS011;2007;48.750;9.278;2023-04-12T06:05:42;2.00;;;1.10;;
3985;SDS011;2007;48.750;9.278;2023-04-12T06:08:10;1.70;;;1.10;;
3985;SDS011;2007;48.750;9.278;2023-04-12T06:10:39;1.80;;;1.10;;
3985;SDS011;2007;48.750;9.278;2023-04-12T06:13:07;1.67;;;1.00;;
3985;SDS011;2007;48.750;9.278;2023-04-12T06:15:37;1.77;;;1.17;;
3985;SDS011;2007;48.750;9.278;2023-04-12T06:18:05;1.83;;;0.90;;
3985;SDS011;2007;48.750;9.278;2023-04-12T06:20:33;1.60;;;1.10;;
3985;SDS011;2007;48.750;9.278;2023-04-12T06:23:04;1.63;;;0.87;;
3985;SDS011;2007;48.750;9.278;2023-04-12T06:25:32;1.80;;;1.03;;
3985;SDS011;2007;48.750;9.278;2023-04-12T06:28:00;2.00;;;0.90;;
3985;SDS011;2007;48.750;9.278;2023-04-12T06:30:28;2.43;;;0.90;;
3985;SDS011;2007;48.750;9.278;2023-04-12T06:32:58;1.80;;;1.00;;
3985;SDS011;2007;48.750;9.278;2023-04-12T06:35:26;1.80;;;1.20;;
3985;SDS011;2007;48.750;9.278;2023-04-12T06:37:53;1.50;;;0.90;;
3985;SDS011;2007;48.750;9.278;2023-04-12T06:40:21;1.70;;;1.10;;
3985;SDS011;2007;48.750;9.278;2023-04-12T06:42:49;1.50;;;1.00;;
3985;SDS011;2007;48.750;9.278;2023-04-12T06:45:17;2.50;;;0.93;;
3985;SDS011;2007;48.750;9.278;2023-04-12T06:47:45;1.67;;;1.10;;
3985;SDS011;2007;48.750;9.278;2023-04-12T06:50:15;1.77;;;1.07;;
3985;SDS011;2007;48.750;9.278;2023-04-12T06:52:43;1.70;;;1.13;;
3985;SDS011;2007;48.750;9.278;2023-04-12T06:55:13;1.67;;;1.00;;
3985;SDS011;2007;48.750;9.278;2023-04-12T06:57:41;1.57;;;1.00;;
3985;SDS011;2007;48.750;9.278;2023-04-12T07:00:10;1.63;;;1.00;;
3985;SDS011;2007;48.750;9.278;2023-04-12T07:02:38;1.60;;;1.00;;
3985;SDS011;2007;48.750;9.278;2023-04-12T07:05:07;1.63;;;1.03;;
3985;SDS011;2007;48.750;9.278;2023-04-12T07:07:36;1.80;;;0.90;;
3985;SDS011;2007;48.750;9.278;2023-04-12T07:10:05;1.60;;;0.90;;
3985;SDS011;2007;48.750;9.278;2023-04-12T07:12:34;1.70;;;1.03;;
3985;SDS011;2007;48.750;9.278;2023-04-12T07:15:03;1.90;;;0.90;;
3985;SDS011;2007;48.750;9.278;2023-04-12T07:17:31;1.80;;;0.73;;
3985;SDS011;2007;48.750;9.278;2023-04-12T07:19:59;2.17;;;1.20;;
3985;SDS011;2007;48.750;9.278;2023-04-12T07:22:27;2.13;;;0.90;;
3985;SDS011;2007;48.750;9.278;2023-04-12T07:24:56;1.60;;;1.03;;
3985;SDS011;2007;48.750;9.278;2023-04-12T07:27:24;2.70;;;0.90;;
3985;SDS011;2007;48.750;9.278;2023-04-12T07:29:52;1.50;;;1.00;;
3985;SDS011;2007;48.750;9.278;2023-04-12T07:32:21;1.83;;;0.90;;
3985;SDS011;2007;48.750;9.278;2023-04-12T07:34:49;1.50;;;0.90;;
3985;SDS011;2007;48.750;9.278;2023-04-12T07:37:18;1.90;;;1.30;;
3985;SDS011;2007;48.750;9.278;2023-04-12T07:39:46;2.07;;;1.10;;
3985;SDS011;2007;48.750;9.278;2023-04-12T07:42:16;1.50;;;0.83;;
3985;SDS011;2007;48.750;9.278;2023-04-12T07:44:44;1.60;;;0.90;;
3985;SDS011;2007;48.750;9.278;2023-04-12T07:47:11;2.10;;;1.00;;
3985;SDS011;2007;48.750;9.278;2023-04-12T07:49:39;1.60;;;0.90;;
3985;SDS011;2007;48.750;9.278;2023-04-12T07:52:07;2.50;;;1.20;;
3985;SDS011;2007;48.750;9.278;2023-04-12T07:54:35;1.50;;;0.83;;
3985;SDS011;2007;48.750;9.278;2023-04-12T07:57:04;1.70;;;0.93;;
3985;SDS011;2007;48.750;9.278;2023-04-12T07:59:34;2.50;;;0.80;;
3985;SDS011;2007;48.750;9.278;2023-04-12T08:02:02;1.70;;;0.80;;
3985;SDS011;2007;48.750;9.278;2023-04-12T08:04:31;1.60;;;0.90;;
3985;SDS011;2007;48.750;9.278;2023-04-12T08:06:59;1.50;;;0.90;;
3985;SDS011;2007;48.750;9.278;2023-04-12T08:09:27;1.60;;;0.90;;
3985;SDS011;2007;48.750;9.278;2023-04-12T08:11:55;1.67;;;1.07;;
3985;SDS011;2007;48.750;9.278;2023-04-12T08:14:23;1.70;;;0.90;;
3985;SDS011;2007;48.750;9.278;2023-04-12T08:16:52;1.67;;;0.93;;
3985;SDS011;2007;48.750;9.278;2023-04-12T08:19:20;2.53;;;1.00;;
3985;SDS011;2007;48.750;9.278;2023-04-12T08:21:48;1.70;;;1.10;;
3985;SDS011;2007;48.750;9.278;2023-04-12T08:24:16;2.07;;;1.23;;
3985;SDS011;2007;48.750;9.278;2023-04-12T08:26:45;1.73;;;1.00;;
3985;SDS011;2007;48.750;9.278;2023-04-12T08:29:13;1.60;;;0.90;;
3985;SDS011;2007;48.750;9.278;2023-04-12T08:31:41;1.63;;;0.83;;
3985;SDS011;2007;48.750;9.278;2023-04-12T08:34:10;1.40;;;0.80;;
3985;SDS011;2007;48.750;9.278;2023-04-12T08:36:38;1.50;;;0.90;;
3985;SDS011;2007;48.750;9.278;2023-04-12T08:39:06;1.70;;;1.07;;
3985;SDS011;2007;48.750;9.278;2023-04-12T08:41:34;1.53;;;0.90;;
3985;SDS011;2007;48.750;9.278;2023-04-12T08:44:04;1.50;;;0.90;;
3985;SDS011;2007;48.750;9.278;2023-04-12T08:46:34;2.07;;;1.30;;
3985;SDS011;2007;48.750;9.278;2023-04-12T08:49:02;1.50;;;0.70;;
3985;SDS011;2007;48.750;9.278;2023-04-12T08:51:31;1.90;;;0.90;;
3985;SDS011;2007;48.750;9.278;2023-04-12T08:54:01;1.90;;;1.10;;
3985;SDS011;2007;48.750;9.278;2023-04-12T08:56:30;1.50;;;0.80;;
3985;SDS011;2007;48.750;9.278;2023-04-12T08:58:59;1.87;;;0.80;;
3985;SDS011;2007;48.750;9.278;2023-04-12T09:01:27;2.17;;;1.17;;
3985;SDS011;2007;48.750;9.278;2023-04-12T09:03:55;1.53;;;0.80;;
3985;SDS011;2007;48.750;9.278;2023-04-12T09:06:24;1.80;;;0.80;;
3985;SDS011;2007;48.750;9.278;2023-04-12T09:08:54;1.50;;;0.80;;
3985;SDS011;2007;48.750;9.278;2023-04-12T09:11:23;1.83;;;0.90;;
3985;SDS011;2007;48.750;9.278;2023-04-12T09:13:52;1.60;;;0.90;;
3985;SDS011;2007;48.750;9.278;2023-04-12T09:16:34;1.50;;;0.80;;
3985;SDS011;2007;48.750;9.278;2023-04-12T09:19:03;1.40;;;0.70;;
3985;SDS011;2007;48.750;9.278;2023-04-12T09:21:31;1.53;;;0.90;;
3985;SDS011;2007;48.750;9.278;2023-04-12T09:24:02;1.80;;;0.80;;
3985;SDS011;2007;48.750;9.278;2023-04-12T09:26:38;2.40;;;1.00;;
3985;SDS011;2007;48.750;9.278;2023-04-12T09:29:06;1.50;;;0.80;;
3985;SDS011;2007;48.750;9.278;2023-04-12T09:31:55;1.60;;;0.83;;
3985;SDS011;2007;48.750;9.278;2023-04-12T09:34:27;1.70;;;0.93;;
3985;SDS011;2007;48.750;9.278;2023-04-12T09:36:55;1.60;;;1.00;;
3985;SDS011;2007;48.750;9.278;2023-04-12T09:39:31;1.50;;;0.80;;
3985;SDS011;2007;48.750;9.278;2023-04-12T09:42:05;2.00;;;1.00;;
3985;SDS011;2007;48.750;9.278;2023-04-12T09:44:55;1.57;;;0.70;;
3985;SDS011;2007;48.750;9.278;2023-04-12T09:47:34;1.60;;;0.90;;
3985;SDS011;2007;48.750;9.278;2023-04-12T09:50:05;1.60;;;0.90;;
3985;SDS011;2007;48.750;9.278;2023-04-12T09:52:35;1.60;;;0.80;;
3985;SDS011;2007;48.750;9.278;2023-04-12T09:55:07;1.60;;;0.80;;
3985;SDS011;2007;48.750;9.278;2023-04-12T09:57:37;1.70;;;0.90;;
3985;SDS011;2007;48.750;9.278;2023-04-12T10:00:09;1.50;;;0.80;;
3985;SDS011;2007;48.750;9.278;2023-04-12T10:02:43;2.27;;;0.90;;
3985;SDS011;2007;48.750;9.278;2023-04-12T10:05:14;1.40;;;0.77;;
3985;SDS011;2007;48.750;9.278;2023-04-12T10:07:44;1.53;;;0.83;;
3985;SDS011;2007;48.750;9.278;2023-04-12T10:10:15;1.43;;;0.77;;
3985;SDS011;2007;48.750;9.278;2023-04-12T10:12:45;1.50;;;0.90;;
3985;SDS011;2007;48.750;9.278;2023-04-12T10:15:14;1.30;;;0.73;;
3985;SDS011;2007;48.750;9.278;2023-04-12T10:17:44;2.30;;;0.77;;
3985;SDS011;2007;48.750;9.278;2023-04-12T10:20:14;1.50;;;0.80;;
3985;SDS011;2007;48.750;9.278;2023-04-12T10:22:44;1.50;;;0.80;;
3985;SDS011;2007;48.750;9.278;2023-04-12T10:25:15;1.67;;;0.97;;
3985;SDS011;2007;48.750;9.278;2023-04-12T10:27:45;1.40;;;0.80;;
3985;SDS011;2007;48.750;9.278;2023-04-12T10:30:20;1.30;;;0.60;;
3985;SDS011;2007;48.750;9.278;2023-04-12T10:35:51;1.53;;;0.73;;
3985;SDS011;2007;48.750;9.278;2023-04-12T10:38:26;1.50;;;0.73;;
3985;SDS011;2007;48.750;9.278;2023-04-12T10:43:52;1.50;;;0.87;;
3985;SDS011;2007;48.750;9.278;2023-04-12T10:46:53;1.40;;;0.70;;
3985;SDS011;2007;48.750;9.278;2023-04-12T10:49:21;1.50;;;0.70;;
3985;SDS011;2007;48.750;9.278;2023-04-12T10:54:41;1.90;;;1.00;;
3985;SDS011;2007;48.750;9.278;2023-04-12T11:00:14;1.70;;;0.80;;
3985;SDS011;2007;48.750;9.278;2023-04-12T11:08:45;1.40;;;0.73;;
3985;SDS011;2007;48.750;9.278;2023-04-12T11:11:17;1.90;;;0.80;;
3985;SDS011;2007;48.750;9.278;2023-04-12T11:13:46;1.80;;;1.00;;
3985;SDS011;2007;48.750;9.278;2023-04-12T11:16:15;2.60;;;0.77;;
3985;SDS011;2007;48.750;9.278;2023-04-12T11:18:45;1.50;;;0.80;;
3985;SDS011;2007;48.750;9.278;2023-04-12T11:21:13;1.80;;;0.83;;
3985;SDS011;2007;48.750;9.278;2023-04-12T11:23:41;1.40;;;0.77;;
3985;SDS011;2007;48.750;9.278;2023-04-12T11:26:10;1.70;;;1.10;;
3985;SDS011;2007;48.750;9.278;2023-04-12T11:28:38;2.50;;;1.07;;
3985;SDS011;2007;48.750;9.278;2023-04-12T11:31:06;1.70;;;0.93;;
3985;SDS011;2007;48.750;9.278;2023-04-12T11:33:36;1.80;;;1.03;;
3985;SDS011;2007;48.750;9.278;2023-04-12T11:36:05;1.70;;;0.97;;
3985;SDS011;2007;48.750;9.278;2023-04-12T11:38:35;1.50;;;0.90;;
3985;SDS011;2007;48.750;9.278;2023-04-12T11:41:04;1.80;;;0.80;;
3985;SDS011;2007;48.750;9.278;2023-04-12T11:43:33;1.40;;;0.80;;
3985;SDS011;2007;48.750;9.278;2023-04-12T11:46:04;1.90;;;1.20;;
3985;SDS011;2007;48.750;9.278;2023-04-12T11:48:32;1.53;;;0.77;;
3985;SDS011;2007;48.750;9.278;2023-04-12T11:51:18;2.17;;;0.80;;
3985;SDS011;2007;48.750;9.278;2023-04-12T11:53:50;1.60;;;0.70;;
3985;SDS011;2007;48.750;9.278;2023-04-12T11:56:19;1.60;;;1.00;;
3985;SDS011;2007;48.750;9.278;2023-04-12T11:58:47;1.83;;;0.90;;
3985;SDS011;2007;48.750;9.278;2023-04-12T12:01:15;1.73;;;0.90;;
3985;SDS011;2007;48.750;9.278;2023-04-12T12:03:45;1.60;;;0.80;;
3985;SDS011;2007;48.750;9.278;2023-04-12T12:06:14;2.63;;;0.80;;
3985;SDS011;2007;48.750;9.278;2023-04-12T12:08:45;1.43;;;0.80;;
3985;SDS011;2007;48.750;9.278;2023-04-12T12:11:14;2.00;;;0.90;;
3985;SDS011;2007;48.750;9.278;2023-04-12T12:13:43;1.50;;;0.83;;
3985;SDS011;2007;48.750;9.278;2023-04-12T12:16:12;1.87;;;1.10;;
3985;SDS011;2007;48.750;9.278;2023-04-12T12:18:40;1.70;;;0.97;;
3985;SDS011;2007;48.750;9.278;2023-04-12T12:21:09;1.70;;;1.03;;
3985;SDS011;2007;48.750;9.278;2023-04-12T12:23:38;2.00;;;0.87;;
3985;SDS011;2007;48.750;9.278;2023-04-12T12:26:09;1.50;;;0.80;;
3985;SDS011;2007;48.750;9.278;2023-04-12T12:28:48;1.53;;;0.77;;
3985;SDS011;2007;48.750;9.278;2023-04-12T12:31:18;1.70;;;0.90;;
3985;SDS011;2007;48.750;9.278;2023-04-12T12:33:48;1.53;;;0.83;;
3985;SDS011;2007;48.750;9.278;2023-04-12T12:36:18;1.83;;;0.80;;
3985;SDS011;2007;48.750;9.278;2023-04-12T12:38:46;1.40;;;0.70;;
3985;SDS011;2007;48.750;9.278;2023-04-12T12:41:18;1.50;;;0.70;;
3985;SDS011;2007;48.750;9.278;2023-04-12T12:43:48;1.50;;;0.90;;
3985;SDS011;2007;48.750;9.278;2023-04-12T12:46:17;1.60;;;1.00;;
3985;SDS011;2007;48.750;9.278;2023-04-12T12:48:46;1.60;;;0.90;;
3985;SDS011;2007;48.750;9.278;2023-04-12T12:51:15;1.50;;;0.90;;
3985;SDS011;2007;48.750;9.278;2023-04-12T12:53:45;1.40;;;0.70;;
3985;SDS011;2007;48.750;9.278;2023-04-12T12:56:13;1.33;;;0.70;;
3985;SDS011;2007;48.750;9.278;2023-04-12T12:58:43;1.40;;;0.83;;
3985;SDS011;2007;48.750;9.278;2023-04-12T13:01:12;1.60;;;0.80;;
3985;SDS011;2007;48.750;9.278;2023-04-12T13:03:40;1.43;;;0.67;;
3985;SDS011;2007;48.750;9.278;2023-04-12T13:06:08;1.83;;;0.90;;
3985;SDS011;2007;48.750;9.278;2023-04-12T13:08:36;1.50;;;0.80;;
3985;SDS011;2007;48.750;9.278;2023-04-12T13:11:04;1.40;;;0.70;;
3985;SDS011;2007;48.750;9.278;2023-04-12T13:13:32;1.50;;;0.80;;
3985;SDS011;2007;48.750;9.278;2023-04-12T13:16:01;1.50;;;0.80;;
3985;SDS011;2007;48.750;9.278;2023-04-12T13:18:30;1.50;;;0.70;;
3985;SDS011;2007;48.750;9.278;2023-04-12T13:20:58;1.50;;;0.80;;
3985;SDS011;2007;48.750;9.278;2023-04-12T13:23:28;1.40;;;0.80;;
3985;SDS011;2007;48.750;9.278;2023-04-12T13:25:56;1.40;;;0.70;;
3985;SDS011;2007;48.750;9.278;2023-04-12T13:28:24;1.80;;;0.93;;
3985;SDS011;2007;48.750;9.278;2023-04-12T13:30:52;1.50;;;0.83;;
3985;SDS011;2007;48.750;9.278;2023-04-12T13:33:21;1.90;;;1.07;;
3985;SDS011;2007;48.750;9.278;2023-04-12T13:35:49;1.90;;;1.17;;
3985;SDS011;2007;48.750;9.278;2023-04-12T13:38:17;1.70;;;0.90;;
3985;SDS011;2007;48.750;9.278;2023-04-12T13:40:45;1.80;;;0.77;;
3985;SDS011;2007;48.750;9.278;2023-04-12T13:43:13;1.50;;;0.87;;
3985;SDS011;2007;48.750;9.278;2023-04-12T13:45:41;1.80;;;0.80;;
3985;SDS011;2007;48.750;9.278;2023-04-12T13:48:12;1.90;;;0.80;;
3985;SDS011;2007;48.750;9.278;2023-04-12T13:50:41;1.70;;;0.73;;
3985;SDS011;2007;48.750;9.278;2023-04-12T13:53:09;1.43;;;0.83;;
3985;SDS011;2007;48.750;9.278;2023-04-12T13:55:37;1.63;;;0.70;;
3985;SDS011;2007;48.750;9.278;2023-04-12T13:58:05;1.30;;;0.60;;
3985;SDS011;2007;48.750;9.278;2023-04-12T14:00:33;1.60;;;0.90;;
3985;SDS011;2007;48.750;9.278;2023-04-12T14:03:01;1.60;;;0.80;;
3985;SDS011;2007;48.750;9.278;2023-04-12T14:05:29;1.50;;;0.90;;
3985;SDS011;2007;48.750;9.278;2023-04-12T14:07:58;2.37;;;0.70;;
3985;SDS011;2007;48.750;9.278;2023-04-12T14:10:26;1.40;;;0.73;;
3985;SDS011;2007;48.750;9.278;2023-04-12T14:12:54;2.00;;;0.90;;
3985;SDS011;2007;48.750;9.278;2023-04-12T14:15:22;1.30;;;0.70;;
3985;SDS011;2007;48.750;9.278;2023-04-12T14:17:50;1.90;;;0.90;;
3985;SDS011;2007;48.750;9.278;2023-04-12T14:20:18;1.47;;;0.80;;
3985;SDS011;2007;48.750;9.278;2023-04-12T14:22:47;1.50;;;0.83;;
3985;SDS011;2007;48.750;9.278;2023-04-12T14:25:17;1.50;;;0.77;;
3985;SDS011;2007;48.750;9.278;2023-04-12T14:27:46;1.40;;;0.73;;
3985;SDS011;2007;48.750;9.278;2023-04-12T14:30:14;1.70;;;0.90;;
3985;SDS011;2007;48.750;9.278;2023-04-12T14:32:45;1.53;;;0.90;;
3985;SDS011;2007;48.750;9.278;2023-04-12T14:35:13;2.00;;;1.00;;
3985;SDS011;2007;48.750;9.278;2023-04-12T14:37:41;1.70;;;1.13;;
3985;SDS011;2007;48.750;9.278;2023-04-12T14:40:09;1.50;;;0.80;;
3985;SDS011;2007;48.750;9.278;2023-04-12T14:42:39;1.90;;;0.90;;
3985;SDS011;2007;48.750;9.278;2023-04-12T14:45:07;1.50;;;0.80;;
3985;SDS011;2007;48.750;9.278;2023-04-12T14:47:36;1.57;;;0.83;;
3985;SDS011;2007;48.750;9.278;2023-04-12T14:50:04;1.47;;;0.77;;
3985;SDS011;2007;48.750;9.278;2023-04-12T14:52:33;1.50;;;0.90;;
3985;SDS011;2007;48.750;9.278;2023-04-12T14:55:01;1.40;;;0.80;;
3985;SDS011;2007;48.750;9.278;2023-04-12T14:57:30;1.60;;;0.80;;
3985;SDS011;2007;48.750;9.278;2023-04-12T14:59:59;3.10;;;1.00;;
3985;SDS011;2007;48.750;9.278;2023-04-12T15:02:27;1.40;;;0.80;;
3985;SDS011;2007;48.750;9.278;2023-04-12T15:04:55;1.40;;;0.70;;
3985;SDS011;2007;48.750;9.278;2023-04-12T15:07:24;1.57;;;0.70;;
3985;SDS011;2007;48.750;9.278;2023-04-12T15:09:52;1.40;;;0.67;;
3985;SDS011;2007;48.750;9.278;2023-04-12T15:12:20;1.60;;;0.80;;
3985;SDS011;2007;48.750;9.278;2023-04-12T15:14:48;1.60;;;0.73;;
3985;SDS011;2007;48.750;9.278;2023-04-12T15:17:20;2.37;;;0.97;;
3985;SDS011;2007;48.750;9.278;2023-04-12T15:19:49;1.50;;;0.80;;
3985;SDS011;2007;48.750;9.278;2023-04-12T15:22:17;1.80;;;1.00;;
3985;SDS011;2007;48.750;9.278;2023-04-12T15:24:45;1.63;;;0.80;;
3985;SDS011;2007;48.750;9.278;2023-04-12T15:27:14;1.30;;;0.67;;
3985;SDS011;2007;48.750;9.278;2023-04-12T15:29:41;1.50;;;0.80;;
3985;SDS011;2007;48.750;9.278;2023-04-12T15:32:09;1.73;;;0.90;;
3985;SDS011;2007;48.750;9.278;2023-04-12T15:34:39;1.47;;;0.80;;
3985;SDS011;2007;48.750;9.278;2023-04-12T15:37:07;1.60;;;0.83;;
3985;SDS011;2007;48.750;9.278;2023-04-12T15:39:35;1.80;;;0.80;;
3985;SDS011;2007;48.750;9.278;2023-04-12T15:42:03;1.70;;;0.80;;
3985;SDS011;2007;48.750;9.278;2023-04-12T15:44:31;1.63;;;0.90;;
3985;SDS011;2007;48.750;9.278;2023-04-12T15:46:59;1.40;;;0.80;;